Time;durP1;ratioP1;P1;durP2;ratioP2;P2;SDS_P1;SDS_P2;PMS_P1;PMS_P2;Temp;Humidity;BMP_temperature;BMP_pressure;BME280_temperature;BME280_humidity;BME280_pressure;Samples;Min_cycle;Max_cycle;Signal;HPM_P1;HPM_P2
2022/02/02 00:01:13;;;;;;;0.90;0.90;;;4.80;84.20;;;;;;4975261;28;20053;-68
2022/02/02 00:03:38;;;;;;;0.98;0.98;;;4.80;84.20;;;;;;4973862;28;20120;-68
2022/02/02 00:06:17;;;;;;;1.08;1.02;;;4.90;84.40;;;;;;4973968;28;20181;-67
2022/02/02 00:09:06;;;;;;;1.70;1.60;;;4.90;84.60;;;;;;4974551;28;20117;-68
2022/02/02 00:17:00;;;;;;;1.30;1.30;;;4.90;84.40;;;;;;4974337;28;20557;-70
2022/02/02 00:22:02;;;;;;;1.77;1.33;;;5.00;84.10;;;;;;4973105;28;21684;-69
2022/02/02 00:24:48;;;;;;;1.45;1.35;;;5.00;83.90;;;;;;4975871;28;20031;-70
2022/02/02 00:27:17;;;;;;;1.33;1.23;;;5.00;83.50;;;;;;4976524;28;20035;-69
2022/02/02 00:29:49;;;;;;;1.55;1.45;;;5.00;83.50;;;;;;4974452;28;20038;-69
2022/02/02 00:34:40;;;;;;;1.70;1.60;;;4.90;83.70;;;;;;4975844;28;20112;-69
2022/02/02 00:37:06;;;;;;;1.85;1.65;;;4.90;83.90;;;;;;4975562;28;20047;-69
2022/02/02 00:39:31;;;;;;;2.15;1.95;;;4.90;84.00;;;;;;4976059;28;20078;-69
2022/02/02 00:41:58;;;;;;;1.55;1.45;;;4.90;84.10;;;;;;4975715;28;20093;-69
2022/02/02 00:44:25;;;;;;;1.60;1.50;;;4.90;84.20;;;;;;4976304;28;20601;-68
2022/02/02 00:46:52;;;;;;;1.63;1.52;;;4.90;84.40;;;;;;4973762;28;20054;-68
2022/02/02 00:49:18;;;;;;;1.90;1.58;;;4.90;84.60;;;;;;4973943;28;20041;-68
2022/02/02 00:51:49;;;;;;;1.77;1.50;;;4.90;84.50;;;;;;4986105;28;20536;-69
2022/02/02 00:54:21;;;;;;;1.88;1.35;;;5.00;84.60;;;;;;4977467;28;20031;-67
2022/02/02 00:56:48;;;;;;;1.60;1.50;;;5.00;84.70;;;;;;4972762;28;20393;-69
2022/02/02 00:59:14;;;;;;;1.60;1.50;;;5.00;84.70;;;;;;4974784;28;20029;-69
2022/02/02 01:01:40;;;;;;;1.58;1.48;;;5.00;84.90;;;;;;4974002;28;20925;-68
2022/02/02 01:04:06;;;;;;;1.67;1.58;;;5.00;84.90;;;;;;4973938;28;20048;-68
2022/02/02 01:06:36;;;;;;;1.90;1.80;;;5.10;85.30;;;;;;4974753;28;20026;-69
2022/02/02 01:09:14;;;;;;;2.92;1.80;;;5.10;85.50;;;;;;4972926;28;20041;-69
2022/02/02 01:29:49;;;;;;;1.90;1.63;;;5.20;85.20;;;;;;4979878;28;20294;-69
2022/02/02 01:32:15;;;;;;;1.83;1.73;;;5.20;85.20;;;;;;4977288;28;20030;-68
2022/02/02 01:34:40;;;;;;;2.00;1.80;;;5.30;85.20;;;;;;4977086;28;20034;-69
2022/02/02 01:37:06;;;;;;;1.80;1.70;;;5.30;85.10;;;;;;4978196;28;20045;-68
2022/02/02 01:39:33;;;;;;;1.67;1.58;;;5.20;85.30;;;;;;4976208;28;20034;-67
2022/02/02 01:42:01;;;;;;;1.90;1.80;;;5.20;85.40;;;;;;4976842;28;20947;-68
2022/02/02 01:44:39;;;;;;;2.28;1.90;;;5.20;86.20;;;;;;4977463;28;20516;-69
2022/02/02 01:47:07;;;;;;;3.10;2.00;;;5.30;85.40;;;;;;4977580;28;20038;-69
2022/02/02 01:52:54;;;;;;;3.92;1.77;;;5.30;85.60;;;;;;4977557;28;20041;-68
2022/02/02 01:55:06;;;;;;;1.90;1.80;;;5.30;85.40;;;;;;4977074;28;20034;-68
2022/02/02 02:00:12;;;;;;;1.98;1.70;;;5.30;85.60;;;;;;4978062;28;20035;-68
2022/02/02 02:02:37;;;;;;;2.72;2.03;;;5.30;85.60;;;;;;4981671;28;20034;-69
2022/02/02 02:05:05;;;;;;;3.25;1.85;;;5.40;85.60;;;;;;4976502;28;20038;-68
2022/02/02 02:07:31;;;;;;;3.35;1.88;;;5.40;85.70;;;;;;4977373;28;20057;-69
2022/02/02 02:09:58;;;;;;;3.40;1.90;;;5.40;86.00;;;;;;4976843;28;21658;-68
2022/02/02 02:12:28;;;;;;;2.55;2.05;;;5.40;85.80;;;;;;4976543;28;20049;-69
2022/02/02 02:14:59;;;;;;;2.50;2.00;;;5.50;85.80;;;;;;4976664;28;20031;-68
2022/02/02 02:17:26;;;;;;;2.75;2.00;;;5.50;85.80;;;;;;4978945;28;20034;-68
2022/02/02 02:19:52;;;;;;;2.25;2.05;;;5.50;85.80;;;;;;4977220;28;20027;-69
2022/02/02 02:22:20;;;;;;;5.93;2.30;;;5.50;85.80;;;;;;4977540;28;20390;-69
2022/02/02 02:24:46;;;;;;;4.10;2.30;;;5.60;86.00;;;;;;4976275;28;20424;-69
2022/02/02 02:27:15;;;;;;;4.47;2.25;;;5.60;86.30;;;;;;4977069;28;20045;-69
2022/02/02 02:56:48;;;;;;;2.73;2.10;;;5.90;85.20;;;;;;4975223;28;20824;-68
2022/02/02 02:59:18;;;;;;;4.40;2.47;;;5.80;85.10;;;;;;4978121;28;20665;-69
2022/02/02 04:10:54;;;;;;;6.55;2.70;;;6.40;85.40;;;;;;4975946;28;20520;-67
2022/02/02 04:37:54;;;;;;;6.50;1.45;;;6.60;83.70;;;;;;4979673;28;20100;-68
2022/02/02 05:04:38;;;;;;;6.45;1.23;;;6.70;81.90;;;;;;4979020;28;20461;-66
2022/02/02 05:07:08;;;;;;;3.60;0.90;;;6.70;81.80;;;;;;4977790;28;20894;-68
2022/02/02 05:26:27;;;;;;;2.25;0.77;;;6.70;81.90;;;;;;4974855;28;20046;-68
2022/02/02 05:42:45;;;;;;;7.70;2.22;;;6.70;82.00;;;;;;4979777;28;20088;-68
2022/02/02 05:45:30;;;;;;;22.40;8.73;;;6.70;82.00;;;;;;4977651;28;20030;-69
2022/02/02 05:50:33;;;;;;;7.43;2.20;;;6.80;82.00;;;;;;4978910;28;20523;-68
2022/02/02 05:52:56;;;;;;;10.05;2.88;;;6.80;81.90;;;;;;4981177;28;20501;-69
2022/02/02 05:55:22;;;;;;;9.88;2.20;;;6.80;81.80;;;;;;4977553;28;20031;-69
2022/02/02 05:57:51;;;;;;;9.93;2.20;;;6.80;81.40;;;;;;4980122;28;20039;-68
2022/02/02 06:00:17;;;;;;;11.77;2.50;;;6.80;81.20;;;;;;4981684;28;20042;-68
2022/02/02 06:02:46;;;;;;;13.05;2.30;;;6.80;81.20;;;;;;4979353;28;20037;-68
2022/02/02 06:05:12;;;;;;;10.75;2.40;;;6.90;80.80;;;;;;4977808;28;20030;-68
2022/02/02 06:07:41;;;;;;;10.35;2.33;;;6.80;80.40;;;;;;4978224;28;20172;-68
2022/02/02 06:10:10;;;;;;;12.15;2.13;;;6.90;80.30;;;;;;4979758;28;20043;-69
2022/02/02 06:12:36;;;;;;;10.55;2.42;;;6.80;79.90;;;;;;4979794;28;20061;-69
2022/02/02 06:15:10;;;;;;;13.93;2.45;;;6.80;79.80;;;;;;4979778;28;20038;-68
2022/02/02 06:17:52;;;;;;;11.65;2.47;;;6.80;79.60;;;;;;4981131;28;20042;-68
2022/02/02 06:20:19;;;;;;;12.02;2.15;;;6.80;79.30;;;;;;4981081;28;20041;-69
2022/02/02 06:23:11;;;;;;;9.18;2.38;;;6.80;79.10;;;;;;4980944;28;20042;-67
2022/02/02 06:25:42;;;;;;;11.43;2.30;;;6.80;78.60;;;;;;4995589;28;20031;-69
2022/02/02 06:28:09;;;;;;;14.20;2.92;;;6.80;79.00;;;;;;4981117;28;20081;-68
2022/02/02 06:30:35;;;;;;;9.98;2.20;;;6.70;79.10;;;;;;4980236;28;20125;-67
2022/02/02 06:33:06;;;;;;;10.23;2.10;;;6.70;79.10;;;;;;4979329;28;20590;-68
2022/02/02 06:35:33;;;;;;;12.30;2.10;;;6.70;79.60;;;;;;4979639;28;20042;-68
2022/02/02 06:37:59;;;;;;;7.40;1.80;;;6.70;78.70;;;;;;4980275;28;20112;-67
2022/02/02 06:40:25;;;;;;;10.63;2.13;;;6.60;78.80;;;;;;4979006;28;20054;-69
2022/02/02 06:42:51;;;;;;;11.43;2.15;;;6.60;78.50;;;;;;4979582;28;20073;-68
2022/02/02 06:45:18;;;;;;;8.98;1.85;;;6.60;78.60;;;;;;4981371;28;20140;-69
2022/02/02 06:47:48;;;;;;;14.70;1.90;;;6.60;78.60;;;;;;4981293;28;20510;-68
2022/02/02 06:50:22;;;;;;;11.20;2.50;;;6.60;78.50;;;;;;4980340;28;20038;-68
2022/02/02 06:53:03;;;;;;;15.03;2.53;;;6.60;78.40;;;;;;4979403;28;20058;-67
2022/02/02 06:55:43;;;;;;;10.05;2.60;;;6.60;78.30;;;;;;4982118;28;20041;-67
2022/02/02 06:58:25;;;;;;;9.63;2.03;;;6.60;78.10;;;;;;4992211;28;20522;-65
2022/02/02 07:01:04;;;;;;;9.00;2.10;;;6.60;77.80;;;;;;4975886;28;20047;-67
2022/02/02 07:04:02;;;;;;;10.32;1.90;;;6.60;78.20;;;;;;4978095;28;20049;-66
2022/02/02 07:06:55;;;;;;;8.65;1.88;;;6.70;78.00;;;;;;4976185;28;20035;-68
2022/02/02 07:12:10;;;;;;;5.97;1.67;;;6.70;78.10;;;;;;4979917;28;20046;-68
2022/02/02 07:20:10;;;;;;;9.98;1.60;;;6.80;78.40;;;;;;4981195;28;20034;-67
2022/02/02 07:30:54;;;;;;;6.40;2.00;;;6.80;78.70;;;;;;4978692;28;20042;-68
2022/02/02 07:33:27;;;;;;;6.57;2.20;;;6.80;78.90;;;;;;4978674;28;20043;-69
2022/02/02 07:38:34;;;;;;;10.40;2.50;;;6.80;79.10;;;;;;4978441;28;20038;-67
2022/02/02 07:41:05;;;;;;;7.55;1.90;;;6.80;79.00;;;;;;4978687;28;20030;-66
2022/02/02 07:43:35;;;;;;;8.10;1.90;;;6.80;79.10;;;;;;4978579;28;20042;-67
2022/02/02 07:46:06;;;;;;;8.02;1.92;;;6.80;79.30;;;;;;4979582;28;20588;-67
2022/02/02 07:48:38;;;;;;;3.90;1.52;;;6.80;79.20;;;;;;4977766;28;20045;-67
2022/02/02 07:51:05;;;;;;;5.22;1.50;;;6.80;79.30;;;;;;4980342;28;20460;-68
2022/02/02 07:53:39;;;;;;;7.07;1.30;;;6.80;79.30;;;;;;4979621;28;20414;-68
2022/02/02 07:56:10;;;;;;;13.45;2.00;;;6.90;79.20;;;;;;4978723;28;20034;-68
2022/02/02 07:58:39;;;;;;;8.43;1.60;;;6.90;79.10;;;;;;4976175;28;20599;-67
2022/02/02 08:01:06;;;;;;;5.20;1.48;;;6.90;78.90;;;;;;4976695;28;20119;-68
2022/02/02 08:03:38;;;;;;;6.22;1.15;;;6.90;78.90;;;;;;4975495;28;20418;-68
2022/02/02 08:06:06;;;;;;;6.97;1.40;;;6.90;79.10;;;;;;4978887;28;20460;-68
2022/02/02 08:08:35;;;;;;;4.35;1.40;;;7.00;79.20;;;;;;4976371;28;20038;-66
2022/02/02 08:11:05;;;;;;;5.78;1.60;;;6.90;79.30;;;;;;4978731;28;20096;-67
2022/02/02 08:13:42;;;;;;;6.63;1.70;;;7.00;79.40;;;;;;4979613;28;20476;-67
2022/02/02 08:16:12;;;;;;;6.55;1.90;;;7.00;79.50;;;;;;4980830;28;20054;-68
2022/02/02 08:18:40;;;;;;;9.82;2.17;;;7.00;79.60;;;;;;4978787;28;20074;-67
2022/02/02 08:21:06;;;;;;;9.40;2.47;;;7.00;79.40;;;;;;4977944;28;20042;-68
2022/02/02 08:23:32;;;;;;;8.57;2.20;;;7.00;79.30;;;;;;4977752;28;20094;-66
2022/02/02 08:26:04;;;;;;;8.52;1.95;;;7.00;79.40;;;;;;4979897;28;20050;-67
2022/02/02 08:28:30;;;;;;;13.00;2.33;;;7.00;79.40;;;;;;4991756;28;20764;-67
2022/02/02 08:30:56;;;;;;;8.88;1.90;;;7.00;79.30;;;;;;4977867;28;20382;-67
2022/02/02 08:33:27;;;;;;;7.85;1.85;;;7.00;79.30;;;;;;4978604;28;20101;-68
2022/02/02 08:35:55;;;;;;;10.23;1.90;;;7.10;79.40;;;;;;4978954;28;20031;-68
2022/02/02 08:40:59;;;;;;;8.25;1.90;;;7.10;79.40;;;;;;4977411;28;20046;-68
2022/02/02 08:45:56;;;;;;;6.05;1.90;;;7.10;79.40;;;;;;4976992;28;20069;-67
2022/02/02 08:48:25;;;;;;;7.85;2.40;;;7.10;79.60;;;;;;4977613;28;20066;-69
2022/02/02 08:50:59;;;;;;;9.93;1.90;;;7.10;79.60;;;;;;4977076;28;20090;-67
2022/02/02 08:58:39;;;;;;;9.43;3.30;;;7.20;79.80;;;;;;4978939;28;20038;-68
2022/02/02 09:01:14;;;;;;;13.13;2.75;;;7.20;79.70;;;;;;4978077;28;20141;-68
2022/02/02 09:06:23;;;;;;;9.15;1.70;;;7.30;79.50;;;;;;4981062;28;20042;-68
2022/02/02 09:09:05;;;;;;;11.68;3.22;;;7.30;79.40;;;;;;4979262;28;20035;-68
2022/02/02 09:35:55;;;;;;;10.70;2.15;;;7.30;80.30;;;;;;4984302;28;20444;-67
2022/02/02 09:38:22;;;;;;;8.52;2.10;;;7.20;80.50;;;;;;4980514;28;20039;-68
2022/02/02 09:43:22;;;;;;;9.20;2.45;;;7.10;81.50;;;;;;4982202;28;20026;-68
2022/02/02 09:45:55;;;;;;;11.57;2.65;;;7.00;81.90;;;;;;4982739;28;20030;-68
2022/02/02 09:48:29;;;;;;;9.27;2.47;;;7.00;82.30;;;;;;4982232;28;20136;-67
2022/02/02 09:51:01;;;;;;;8.85;2.72;;;7.00;83.20;;;;;;4980516;28;20042;-67
2022/02/02 09:54:11;;;;;;;10.80;2.67;;;7.00;82.60;;;;;;4984625;28;20176;-68
2022/02/02 09:57:02;;;;;;;12.85;4.20;;;7.10;83.00;;;;;;4981213;28;20497;-68
2022/02/02 10:04:57;;;;;;;13.52;3.05;;;7.20;83.80;;;;;;4981307;28;20300;-67
2022/02/02 10:13:02;;;;;;;17.40;3.28;;;7.30;83.50;;;;;;4980560;28;20623;-67
2022/02/02 10:15:31;;;;;;;15.43;3.15;;;7.30;83.40;;;;;;4980384;28;20034;-67
2022/02/02 10:18:04;;;;;;;18.48;4.00;;;7.40;83.40;;;;;;4981498;28;20031;-67
2022/02/02 10:20:30;;;;;;;20.02;4.13;;;7.50;83.40;;;;;;4982320;28;20034;-67
2022/02/02 10:22:58;;;;;;;16.23;4.10;;;7.50;83.90;;;;;;4981280;28;20034;-67
2022/02/02 10:25:25;;;;;;;16.60;3.55;;;7.60;82.40;;;;;;4982128;28;20034;-68
2022/02/02 10:27:52;;;;;;;14.88;3.42;;;7.70;82.20;;;;;;4981015;28;20421;-67
2022/02/02 10:30:20;;;;;;;12.13;3.30;;;7.80;82.30;;;;;;4982451;28;20038;-67
2022/02/02 10:32:49;;;;;;;17.30;3.15;;;7.90;81.90;;;;;;4981945;28;20050;-67
2022/02/02 10:35:28;;;;;;;16.17;3.15;;;7.90;80.90;;;;;;4982160;28;20026;-66
2022/02/02 10:38:05;;;;;;;13.63;2.90;;;8.00;79.90;;;;;;4982901;28;20306;-67
2022/02/02 10:40:43;;;;;;;14.45;2.45;;;8.10;80.60;;;;;;4983594;28;20054;-67
2022/02/02 10:43:21;;;;;;;17.63;3.13;;;8.10;79.40;;;;;;4979779;28;20039;-68
2022/02/02 10:45:47;;;;;;;12.55;3.30;;;8.20;78.70;;;;;;4982632;28;20521;-68
2022/02/02 10:56:42;;;;;;;12.48;3.08;;;8.30;77.90;;;;;;4980909;28;20409;-67
2022/02/02 11:01:51;;;;;;;;;;;8.30;78.40;;;;;;4980065;28;20038;-68
2022/02/02 11:07:01;;;;;;;10.90;3.22;;;8.40;78.10;;;;;;4980930;28;20042;-67
2022/02/02 11:09:29;;;;;;;11.38;3.10;;;8.40;77.50;;;;;;4980230;28;20121;-67
2022/02/02 11:11:57;;;;;;;12.32;3.25;;;8.40;77.70;;;;;;4994645;28;20038;-67
2022/02/02 11:14:48;;;;;;;16.30;3.10;;;8.40;78.20;;;;;;4983501;28;20101;-67
2022/02/02 11:17:23;;;;;;;14.55;3.22;;;8.30;78.50;;;;;;4997583;28;20047;-68
2022/02/02 11:19:51;;;;;;;11.98;2.97;;;8.30;78.80;;;;;;4981673;28;20121;-67
2022/02/02 11:22:31;;;;;;;13.45;3.28;;;8.30;78.90;;;;;;4984230;28;20092;-69
2022/02/02 11:25:17;;;;;;;13.45;4.00;;;8.40;78.90;;;;;;4981589;28;20037;-65
2022/02/02 11:27:50;;;;;;;16.70;3.63;;;8.40;78.70;;;;;;4973957;28;20501;-68
2022/02/02 11:30:25;;;;;;;14.25;2.83;;;8.40;78.80;;;;;;4981685;28;20078;-69
2022/02/02 11:33:13;;;;;;;13.50;3.53;;;8.40;78.70;;;;;;4981945;28;21328;-67
2022/02/02 11:38:19;;;;;;;11.63;3.03;;;8.40;78.30;;;;;;4980110;28;20038;-68
2022/02/02 11:41:05;;;;;;;15.27;3.00;;;8.40;78.40;;;;;;4979611;28;20042;-68
2022/02/02 11:43:47;;;;;;;11.27;2.70;;;8.40;78.60;;;;;;4979574;28;20035;-67
2022/02/02 11:49:22;;;;;;;16.38;3.08;;;8.40;78.50;;;;;;4976710;28;20034;-67
2022/02/02 11:51:57;;;;;;;14.02;2.97;;;8.40;78.70;;;;;;4973489;28;20042;-68
2022/02/02 11:54:32;;;;;;;12.57;2.92;;;8.40;78.60;;;;;;4979762;28;20045;-68
2022/02/02 11:56:58;;;;;;;11.10;3.13;;;8.50;78.20;;;;;;4983866;28;20033;-67
2022/02/02 12:02:25;;;;;;;14.68;3.25;;;8.60;77.00;;;;;;4979701;28;20413;-68
2022/02/02 12:10:41;;;;;;;16.52;3.10;;;8.80;74.60;;;;;;4971510;28;20121;-70
2022/02/02 12:58:04;;;;;;;10.73;2.50;;;9.60;69.80;;;;;;4978892;28;20043;-69
2022/02/02 13:03:04;;;;;;;15.63;3.03;;;9.60;70.00;;;;;;4979621;28;20034;-69
2022/02/02 13:05:30;;;;;;;11.05;2.85;;;9.60;69.90;;;;;;4979617;28;20377;-68
2022/02/02 13:07:59;;;;;;;15.20;2.80;;;9.60;70.00;;;;;;4981215;28;20543;-69
2022/02/02 13:10:27;;;;;;;11.93;2.97;;;9.60;69.30;;;;;;4979536;28;20382;-68
2022/02/02 13:13:13;;;;;;;12.68;2.50;;;9.60;68.50;;;;;;4979968;28;20049;-68
2022/02/02 13:15:50;;;;;;;11.48;2.80;;;9.60;67.60;;;;;;4983075;28;20054;-68
2022/02/02 13:18:28;;;;;;;8.68;2.70;;;9.70;68.80;;;;;;4983445;28;20037;-68
2022/02/02 13:42:55;;;;;;;11.13;2.30;;;9.80;68.50;;;;;;4985763;28;20397;-68
2022/02/02 14:08:58;;;;;;;8.18;1.95;;;9.50;70.70;;;;;;4990992;28;20122;-68
2022/02/02 14:11:05;;;;;;;8.25;2.08;;;9.40;71.30;;;;;;4980549;28;20034;-67
2022/02/02 14:32:41;;;;;;;8.47;2.30;;;9.20;72.30;;;;;;4980015;28;20100;-69
2022/02/02 14:35:07;;;;;;;6.18;2.05;;;9.20;72.50;;;;;;4979643;28;20046;-68
2022/02/02 14:37:40;;;;;;;11.88;2.38;;;9.20;72.60;;;;;;4977081;28;20034;-68
2022/02/02 14:40:21;;;;;;;8.57;2.38;;;9.10;73.50;;;;;;4972258;28;20115;-67
2022/02/02 14:42:50;;;;;;;11.75;2.83;;;9.10;72.80;;;;;;4978431;28;20039;-68
2022/02/02 14:45:19;;;;;;;11.55;3.38;;;9.10;72.90;;;;;;4977473;28;20030;-69
2022/02/02 14:47:48;;;;;;;8.40;3.05;;;9.10;72.60;;;;;;4973849;28;20037;-69
2022/02/02 14:50:35;;;;;;;9.55;2.13;;;9.10;72.60;;;;;;4981246;28;20042;-68
2022/02/02 15:26:11;;;;;;;9.52;3.20;;;8.90;73.30;;;;;;4979466;28;20038;-68
2022/02/02 15:28:18;;;;;;;6.43;2.83;;;8.90;73.40;;;;;;4982502;28;20322;-70
2022/02/02 15:30:59;;;;;;;9.23;2.67;;;8.90;73.50;;;;;;4981222;28;20046;-69
2022/02/02 15:33:28;;;;;;;6.88;2.88;;;8.90;73.50;;;;;;4980503;28;20039;-69
2022/02/02 15:38:40;;;;;;;9.52;3.20;;;8.90;73.40;;;;;;4979605;28;20062;-68
2022/02/02 15:41:14;;;;;;;7.28;2.92;;;8.80;73.30;;;;;;4981024;28;20165;-69
2022/02/02 15:44:53;;;;;;;10.20;2.88;;;8.80;73.40;;;;;;4979737;28;20121;-68
2022/02/02 16:02:41;;;;;;;9.52;2.20;;;8.70;73.40;;;;;;4972811;28;20512;-69
2022/02/02 16:05:12;;;;;;;11.13;2.20;;;8.70;73.50;;;;;;4982559;28;20056;-68
2022/02/02 16:07:38;;;;;;;7.25;2.53;;;8.70;73.60;;;;;;4979183;28;20026;-68
2022/02/02 16:10:06;;;;;;;8.98;2.55;;;8.70;73.60;;;;;;4977505;28;20038;-68
2022/02/02 16:12:44;;;;;;;6.55;2.38;;;8.70;73.70;;;;;;4976149;28;20498;-68
2022/02/02 16:37:01;;;;;;;3.47;1.48;;;8.50;74.20;;;;;;4976349;28;20065;-66
2022/02/02 16:39:11;;;;;;;4.43;1.92;;;8.50;74.40;;;;;;4966815;28;20030;-68
2022/02/02 16:44:23;;;;;;;4.50;1.30;;;8.50;74.50;;;;;;4973606;28;20060;-67
2022/02/02 16:46:48;;;;;;;4.32;1.48;;;8.50;74.60;;;;;;4975502;28;20482;-67
2022/02/02 16:49:15;;;;;;;2.55;1.42;;;8.40;74.50;;;;;;4980773;28;20130;-68
2022/02/02 16:51:42;;;;;;;1.73;1.10;;;8.40;74.60;;;;;;4978326;28;20037;-68
2022/02/02 16:54:15;;;;;;;3.72;1.48;;;8.40;74.70;;;;;;4978161;28;20046;-68
2022/02/02 17:34:24;;;;;;;5.07;2.00;;;8.20;76.30;;;;;;4982241;28;20046;-67
2022/02/02 17:37:44;;;;;;;4.60;2.17;;;8.20;76.40;;;;;;4980815;28;20938;-68
2022/02/02 17:39:50;;;;;;;4.45;2.20;;;8.20;76.50;;;;;;4976720;28;20038;-68
2022/02/02 17:45:21;;;;;;;2.78;2.03;;;8.20;76.80;;;;;;4979903;28;20061;-68
2022/02/02 18:12:47;;;;;;;2.33;1.60;;;8.30;77.40;;;;;;4976254;28;20109;-67
2022/02/02 18:22:56;;;;;;;7.82;6.05;;;8.30;77.50;;;;;;4978946;28;20038;-69
2022/02/02 18:25:45;;;;;;;3.25;2.10;;;8.30;77.60;;;;;;4979533;28;20057;-68
2022/02/02 18:28:24;;;;;;;2.47;2.25;;;8.30;77.70;;;;;;4979206;28;20034;-68
2022/02/02 18:35:56;;;;;;;6.38;4.43;;;8.30;78.40;;;;;;4977990;28;20089;-67
2022/02/02 18:48:42;;;;;;;;;;;8.20;79.80;;;;;;4980274;28;20043;-68
2022/02/02 19:01:57;;;;;;;1.90;1.80;;;8.20;79.30;;;;;;4978018;28;20030;-68
2022/02/02 20:06:18;;;;;;;2.40;1.95;;;8.20;80.10;;;;;;4978025;28;20113;-67
2022/02/02 20:11:29;;;;;;;1.80;1.70;;;8.10;80.10;;;;;;4976702;28;20048;-67
2022/02/02 20:13:55;;;;;;;2.28;2.03;;;8.10;80.20;;;;;;4975780;28;20373;-68
2022/02/02 20:16:21;;;;;;;1.88;1.73;;;8.10;80.30;;;;;;4975262;28;20027;-67
2022/02/02 20:18:49;;;;;;;2.40;2.13;;;8.10;80.40;;;;;;4976822;28;20050;-68
2022/02/02 20:21:20;;;;;;;3.90;2.60;;;8.10;80.50;;;;;;4976672;28;20038;-67
2022/02/02 20:23:48;;;;;;;2.50;2.28;;;8.10;80.60;;;;;;4976651;28;20030;-67
2022/02/02 20:26:17;;;;;;;3.25;2.45;;;8.10;80.60;;;;;;4977627;28;20046;-66
2022/02/02 20:28:44;;;;;;;3.85;2.70;;;8.10;80.60;;;;;;4975472;28;20031;-67
2022/02/02 20:31:10;;;;;;;3.45;2.58;;;8.10;80.70;;;;;;4976427;28;20031;-68
2022/02/02 20:33:37;;;;;;;2.45;2.25;;;8.10;80.80;;;;;;4975615;28;20568;-67
2022/02/02 20:36:03;;;;;;;3.70;2.50;;;8.10;80.80;;;;;;4978244;28;20041;-67
2022/02/02 20:38:28;;;;;;;2.67;2.05;;;8.10;80.90;;;;;;4975909;28;20134;-67
2022/02/02 20:40:54;;;;;;;2.85;2.35;;;8.10;81.00;;;;;;4977951;28;20121;-68
2022/02/02 20:43:45;;;;;;;2.33;2.00;;;8.10;81.10;;;;;;4974621;28;20035;-67
2022/02/02 21:10:34;;;;;;;1.40;1.30;;;8.10;81.80;;;;;;4976404;28;20038;-67
2022/02/02 21:15:44;;;;;;;2.07;1.50;;;8.10;81.90;;;;;;4975000;28;20093;-67
2022/02/02 21:18:17;;;;;;;1.70;1.60;;;8.10;81.80;;;;;;4977871;28;20306;-67
2022/02/02 21:26:10;;;;;;;1.70;1.50;;;8.20;82.00;;;;;;4976829;28;20031;-67
2022/02/02 21:28:34;;;;;;;1.20;1.10;;;8.20;82.00;;;;;;4974885;28;20051;-67
2022/02/02 21:31:00;;;;;;;2.45;1.40;;;8.20;82.10;;;;;;4977167;28;20043;-67
2022/02/02 21:33:27;;;;;;;2.58;1.50;;;8.10;82.20;;;;;;4975228;28;20069;-66
2022/02/02 21:35:55;;;;;;;2.78;1.42;;;8.20;82.30;;;;;;4980632;28;20037;-67
2022/02/02 21:38:31;;;;;;;1.98;1.25;;;8.10;82.30;;;;;;4979759;28;20639;-67
2022/02/02 21:40:59;;;;;;;1.10;1.02;;;8.10;82.40;;;;;;4978388;28;20045;-66
2022/02/02 21:43:26;;;;;;;1.27;1.17;;;8.20;82.50;;;;;;4978315;28;20105;-67
2022/02/02 21:45:52;;;;;;;1.40;1.30;;;8.20;82.50;;;;;;4978649;28;20038;-67
2022/02/02 21:48:18;;;;;;;1.60;1.48;;;8.20;82.60;;;;;;4982300;28;20855;-68
2022/02/02 21:53:10;;;;;;;1.80;1.70;;;8.20;82.80;;;;;;4978618;28;20117;-67
2022/02/02 21:55:36;;;;;;;2.20;1.92;;;8.20;83.00;;;;;;4979223;28;20043;-67
2022/02/02 21:58:02;;;;;;;2.80;2.60;;;8.20;83.00;;;;;;4982006;28;20038;-67
2022/02/02 22:00:28;;;;;;;3.20;2.90;;;8.20;83.10;;;;;;4980069;28;20031;-67
2022/02/02 22:02:53;;;;;;;2.90;2.70;;;8.20;83.10;;;;;;4980338;28;20039;-67
2022/02/02 22:05:19;;;;;;;3.40;2.72;;;8.20;83.20;;;;;;4981138;28;20237;-68
2022/02/02 22:07:45;;;;;;;3.35;2.90;;;8.20;83.30;;;;;;4980093;28;20037;-67
2022/02/02 22:10:11;;;;;;;4.43;3.40;;;8.30;83.30;;;;;;4981670;28;20042;-67
2022/02/02 22:12:38;;;;;;;3.65;3.10;;;8.20;83.30;;;;;;4980828;28;20062;-67
2022/02/02 22:15:09;;;;;;;3.45;3.15;;;8.30;83.30;;;;;;4994115;28;20085;-67
2022/02/02 22:17:35;;;;;;;3.78;2.90;;;8.30;83.30;;;;;;4979380;28;20119;-69
2022/02/02 22:20:06;;;;;;;3.72;3.35;;;8.30;83.30;;;;;;4980814;28;20057;-69
2022/02/02 22:22:32;;;;;;;3.72;3.40;;;8.30;83.20;;;;;;4980130;28;20126;-67
2022/02/02 22:24:57;;;;;;;3.53;3.22;;;8.30;83.10;;;;;;4979717;28;20034;-67
2022/02/02 22:27:23;;;;;;;3.80;3.50;;;8.30;83.10;;;;;;4977825;28;20030;-69
2022/02/02 22:29:49;;;;;;;3.75;3.40;;;8.40;83.10;;;;;;4977972;28;20045;-68
2022/02/02 22:32:14;;;;;;;3.50;3.20;;;8.30;83.00;;;;;;4976087;28;20038;-67
2022/02/02 22:34:40;;;;;;;3.08;2.80;;;8.40;83.10;;;;;;4976334;28;20046;-67
2022/02/02 22:37:05;;;;;;;3.83;3.35;;;8.30;83.10;;;;;;4979611;28;20034;-67
2022/02/02 22:39:31;;;;;;;4.07;3.67;;;8.40;83.20;;;;;;4976764;28;20508;-67
2022/02/02 22:41:58;;;;;;;3.83;3.42;;;8.40;83.30;;;;;;4979689;28;20038;-67
2022/02/02 22:44:30;;;;;;;3.80;3.50;;;8.40;83.30;;;;;;4976139;28;20505;-68
2022/02/02 22:47:02;;;;;;;3.95;3.55;;;8.40;83.30;;;;;;4978171;28;20042;-68
2022/02/02 22:49:28;;;;;;;3.63;3.33;;;8.40;83.40;;;;;;4977065;28;20031;-67
2022/02/02 22:51:53;;;;;;;4.28;3.88;;;8.40;83.40;;;;;;4977773;28;20117;-68
2022/02/02 22:54:19;;;;;;;3.60;3.30;;;8.40;83.40;;;;;;4976606;28;20038;-67
2022/02/02 22:56:45;;;;;;;3.65;3.35;;;8.40;83.30;;;;;;4976775;28;20054;-67
2022/02/02 22:59:10;;;;;;;4.93;3.70;;;8.50;83.20;;;;;;4976180;28;20599;-68
2022/02/02 23:01:37;;;;;;;3.33;3.10;;;8.50;83.10;;;;;;4976065;28;20035;-69
2022/02/02 23:04:03;;;;;;;3.60;3.30;;;8.50;83.10;;;;;;4979148;28;20045;-67
2022/02/02 23:06:29;;;;;;;4.40;3.90;;;8.50;82.90;;;;;;4975425;28;20042;-67
2022/02/02 23:08:55;;;;;;;4.20;3.80;;;8.50;82.80;;;;;;4976967;28;20115;-66
2022/02/02 23:11:22;;;;;;;4.68;4.28;;;8.40;82.90;;;;;;4976572;28;20049;-67
2022/02/02 23:13:51;;;;;;;4.60;4.20;;;8.40;82.90;;;;;;4977520;28;20410;-67
2022/02/02 23:16:26;;;;;;;6.45;4.47;;;8.40;82.90;;;;;;4976658;28;20039;-67
2022/02/02 23:18:52;;;;;;;4.93;4.32;;;8.40;82.90;;;;;;4989420;28;20043;-66
2022/02/02 23:21:18;;;;;;;5.88;4.18;;;8.30;82.90;;;;;;4976768;28;20093;-67
2022/02/02 23:23:46;;;;;;;4.57;4.13;;;8.30;82.90;;;;;;4974498;28;20453;-67
2022/02/02 23:26:13;;;;;;;4.90;4.28;;;8.30;83.00;;;;;;4977568;28;20509;-67
2022/02/02 23:28:44;;;;;;;4.35;3.95;;;8.30;83.10;;;;;;4976230;28;20072;-67
2022/02/02 23:31:12;;;;;;;5.10;4.60;;;8.30;83.20;;;;;;4977496;28;20034;-67
2022/02/02 23:33:40;;;;;;;5.00;4.50;;;8.30;83.20;;;;;;4977811;28;20034;-67
2022/02/02 23:36:07;;;;;;;5.03;4.55;;;8.30;83.30;;;;;;4976031;28;20385;-67
2022/02/02 23:38:33;;;;;;;5.40;4.30;;;8.20;83.30;;;;;;4975720;28;20435;-67
2022/02/02 23:43:25;;;;;;;6.28;4.80;;;8.20;83.40;;;;;;4975871;28;20034;-68
2022/02/02 23:46:07;;;;;;;4.78;4.32;;;8.20;83.50;;;;;;4978706;28;20038;-68
2022/02/02 23:48:44;;;;;;;5.30;4.80;;;8.20;84.30;;;;;;4975324;28;20034;-68
2022/02/02 23:51:23;;;;;;;5.22;4.72;;;8.20;83.60;;;;;;4977495;28;20084;-67
2022/02/02 23:53:50;;;;;;;4.93;4.45;;;8.30;83.60;;;;;;4974537;28;20434;-67
2022/02/02 23:56:32;;;;;;;5.85;4.55;;;8.20;83.40;;;;;;4975548;28;20112;-67
2022/02/02 23:59:03;;;;;;;4.85;4.45;;;8.30;83.60;;;;;;4974124;28;20034;-67
